KCLT/CLT METAR and TAF weather

Enter ICAO airport designator
Station Type Date Time Source
KCLT METAR 2021/09/24 01:52 UTC NOAA

KCLT 240152Z 34005KT 10SM CLR 16/09 A3004 RMK AO2 SLP169 T01560089


Station Type Date Time Source
KCLT Decoded METAR 2021/09/24 01:52 UTC NOAA

CHARLOTTE/DOUGLAS INTERNATIONAL , NC, United States (KCLT) 35-13N 80-57W 220M
Sep 23, 2021 - 09:52 PM EDT / 2021.09.24 0152 UTC
Wind: from the NNW (340 degrees) at 6 MPH (5 KT):0
Visibility: 10 mile(s):0
Sky conditions: clear
Temperature: 60.1 F (15.6 C)
Dew Point: 48.0 F (8.9 C)
Relative Humidity: 64%
Pressure (altimeter): 30.04 in. Hg (1017 hPa)
ob: KCLT 240152Z 34005KT 10SM CLR 16/09 A3004 RMK AO2 SLP169 T01560089
cycle: 2

Station Type Date Time Source
KCLT TAF 2021/09/23 22:58 UTC NOAA

TAF
AMD KCLT 232156Z 2322/2424 32007KT P6SM FEW060
FM240000 36004KT P6SM SKC
FM241400 02007KT P6SM FEW250

Example: see airport list